Time;durP1;ratioP1;P1;durP2;ratioP2;P2;SDS_P1;SDS_P2;PMS_P1;PMS_P2;Temp;Humidity;BMP_temperature;BMP_pressure;BME280_temperature;BME280_humidity;BME280_pressure;Samples;Min_cycle;Max_cycle;Signal;HPM_P1;HPM_P2
2022/01/06 00:01:08;;;;;;;140.07;76.00;;;20.30;95.20;;;;;;4180973;28;20064;-65
2022/01/06 00:03:13;;;;;;;116.25;67.95;;;20.30;95.10;;;;;;4177004;28;20467;-66
2022/01/06 00:05:17;;;;;;;119.55;67.93;;;20.30;95.10;;;;;;4175909;28;20975;-65
2022/01/06 00:07:23;;;;;;;114.32;59.67;;;20.30;95.20;;;;;;4174535;28;20052;-65
2022/01/06 00:09:28;;;;;;;97.88;58.10;;;20.30;95.30;;;;;;4171580;28;20051;-65
2022/01/06 00:11:32;;;;;;;111.25;56.83;;;20.40;95.60;;;;;;4174809;28;20049;-65
2022/01/06 00:24:36;;;;;;;78.43;49.05;;;20.50;95.30;;;;;;4176918;28;20127;-66
2022/01/06 00:26:41;;;;;;;79.03;46.35;;;20.60;95.30;;;;;;4172656;28;20091;-65
2022/01/06 00:28:45;;;;;;;79.78;46.97;;;20.50;95.50;;;;;;4173762;28;20100;-66
2022/01/06 00:30:50;;;;;;;79.63;48.05;;;20.40;95.80;;;;;;4175625;28;20052;-66
2022/01/06 00:32:56;;;;;;;73.20;49.08;;;20.50;95.70;;;;;;4172088;28;20127;-65
2022/01/06 00:35:01;;;;;;;84.88;52.50;;;20.40;95.90;;;;;;4171662;28;20049;-66
2022/01/06 00:37:07;;;;;;;81.82;51.63;;;20.50;95.70;;;;;;4167519;28;20111;-67
2022/01/06 00:39:12;;;;;;;72.18;48.13;;;20.50;95.70;;;;;;4175813;28;20379;-66
2022/01/06 00:41:16;;;;;;;72.10;47.97;;;20.60;95.40;;;;;;4172349;28;20124;-66
2022/01/06 00:43:21;;;;;;;73.20;47.25;;;20.70;95.20;;;;;;4172131;28;20064;-67
2022/01/06 00:45:25;;;;;;;82.25;48.42;;;20.80;95.20;;;;;;4171725;28;20033;-66
2022/01/06 00:47:30;;;;;;;78.03;49.92;;;20.90;95.10;;;;;;4171268;28;20337;-67
2022/01/06 00:49:34;;;;;;;76.57;48.00;;;21.00;95.10;;;;;;4171635;28;20045;-66
2022/01/06 00:51:40;;;;;;;74.85;49.63;;;21.00;94.90;;;;;;4175805;28;20041;-66
2022/01/06 00:53:44;;;;;;;78.85;51.97;;;21.00;94.80;;;;;;4175158;28;20514;-67
2022/01/06 00:55:48;;;;;;;82.57;54.75;;;21.00;94.80;;;;;;4176264;28;20060;-66
2022/01/06 00:57:55;;;;;;;75.28;50.35;;;21.00;94.70;;;;;;4179196;28;20116;-66
2022/01/06 00:59:59;;;;;;;68.05;45.58;;;21.10;94.50;;;;;;4178417;28;20515;-66
2022/01/06 01:02:05;;;;;;;66.18;44.33;;;21.10;94.20;;;;;;4178851;28;20446;-66
2022/01/06 01:04:09;;;;;;;65.03;42.97;;;21.20;94.30;;;;;;4176587;28;20051;-65
2022/01/06 01:06:15;;;;;;;54.42;37.70;;;21.20;94.60;;;;;;4178811;28;20087;-65
2022/01/06 01:08:20;;;;;;;48.45;33.08;;;21.20;94.50;;;;;;4179200;28;20049;-66
2022/01/06 01:10:24;;;;;;;43.50;30.92;;;21.30;94.40;;;;;;4177913;28;20045;-66
2022/01/06 01:12:29;;;;;;;48.88;32.80;;;21.30;94.10;;;;;;4170112;28;20053;-66
2022/01/06 01:14:45;;;;;;;49.75;34.42;;;21.30;94.00;;;;;;4170042;28;20056;-65
2022/01/06 01:16:58;;;;;;;52.85;34.15;;;21.40;94.10;;;;;;4171086;28;20534;-65
2022/01/06 01:19:10;;;;;;;46.13;33.38;;;21.50;94.10;;;;;;4170754;28;20151;-65
2022/01/06 01:21:16;;;;;;;51.85;33.67;;;21.50;94.10;;;;;;4171425;28;20037;-66
2022/01/06 01:23:21;;;;;;;58.58;36.05;;;21.50;94.40;;;;;;4175740;28;20522;-65
2022/01/06 01:25:25;;;;;;;49.58;34.50;;;21.60;94.60;;;;;;4170826;28;20049;-65
2022/01/06 01:27:35;;;;;;;50.05;31.40;;;21.60;94.30;;;;;;4178242;28;20117;-65
2022/01/06 01:29:51;;;;;;;40.28;27.80;;;21.70;94.10;;;;;;4172342;28;20125;-66
2022/01/06 01:31:57;;;;;;;45.00;29.50;;;21.70;93.60;;;;;;4174172;28;20044;-66
2022/01/06 01:34:08;;;;;;;46.47;28.70;;;21.80;93.60;;;;;;4170790;28;20081;-66
2022/01/06 01:36:14;;;;;;;44.80;26.23;;;21.90;93.70;;;;;;4171052;28;20061;-66
2022/01/06 01:38:19;;;;;;;39.03;25.45;;;21.90;93.90;;;;;;4172300;28;20041;-66
2022/01/06 01:40:23;;;;;;;36.63;24.80;;;22.00;93.90;;;;;;4175001;28;20487;-66
2022/01/06 01:42:28;;;;;;;42.50;25.75;;;22.00;94.10;;;;;;4172498;28;20032;-66
2022/01/06 01:44:33;;;;;;;37.78;25.17;;;22.10;94.10;;;;;;4170703;28;20037;-66
2022/01/06 01:46:44;;;;;;;31.10;23.35;;;22.10;93.80;;;;;;4169398;28;20415;-66
2022/01/06 01:49:08;;;;;;;26.67;18.60;;;22.20;93.90;;;;;;4170862;28;20072;-66
2022/01/06 01:51:14;;;;;;;41.88;24.92;;;22.30;94.80;;;;;;4176766;28;20048;-66
2022/01/06 01:53:18;;;;;;;34.80;23.15;;;22.30;94.50;;;;;;4178094;28;20041;-66
2022/01/06 01:55:25;;;;;;;30.38;22.02;;;22.40;94.40;;;;;;4177646;28;20081;-67
2022/01/06 01:57:30;;;;;;;29.73;20.17;;;22.40;94.20;;;;;;4175612;28;20045;-66
2022/01/06 01:59:35;;;;;;;34.00;20.70;;;22.40;94.30;;;;;;4177823;28;20508;-66
2022/01/06 02:01:42;;;;;;;24.27;17.75;;;22.40;94.30;;;;;;4177708;28;20037;-66
2022/01/06 02:03:48;;;;;;;27.92;18.33;;;22.40;94.20;;;;;;4177644;28;20545;-66
2022/01/06 02:05:53;;;;;;;22.27;14.65;;;22.50;94.50;;;;;;4175801;28;20442;-66
2022/01/06 02:08:01;;;;;;;24.98;15.25;;;22.60;94.40;;;;;;4177015;28;20111;-67
2022/01/06 02:10:08;;;;;;;23.88;15.02;;;22.60;94.30;;;;;;4177790;28;20041;-66
2022/01/06 02:12:31;;;;;;;19.05;14.15;;;22.60;94.40;;;;;;4175398;28;20060;-66
2022/01/06 02:14:37;;;;;;;20.10;13.20;;;22.70;94.50;;;;;;4175353;28;20056;-66
2022/01/06 02:16:42;;;;;;;17.77;11.95;;;22.70;94.40;;;;;;4176624;28;20102;-67
2022/01/06 02:18:50;;;;;;;16.90;11.93;;;22.80;94.80;;;;;;4177026;28;20044;-67
2022/01/06 02:20:54;;;;;;;19.95;12.00;;;22.80;94.70;;;;;;4176545;28;20111;-67
2022/01/06 02:22:59;;;;;;;18.55;12.00;;;22.80;94.70;;;;;;4177741;28;20061;-67
2022/01/06 02:25:18;;;;;;;24.77;13.30;;;22.90;94.80;;;;;;4177183;28;20045;-67
2022/01/06 02:27:22;;;;;;;18.38;11.82;;;22.90;94.80;;;;;;4176918;28;20375;-66
2022/01/06 02:29:26;;;;;;;17.63;11.73;;;23.00;94.50;;;;;;4177578;28;20041;-67
2022/01/06 02:31:42;;;;;;;19.50;12.52;;;23.00;94.50;;;;;;4175046;28;20045;-67
2022/01/06 02:33:48;;;;;;;19.67;12.77;;;23.10;94.80;;;;;;4177838;28;20056;-67
2022/01/06 02:35:54;;;;;;;18.92;12.30;;;23.10;94.50;;;;;;4177269;28;20399;-67
2022/01/06 02:37:59;;;;;;;20.73;13.13;;;23.20;94.50;;;;;;4177524;28;20379;-67
2022/01/06 02:40:18;;;;;;;20.85;12.75;;;23.20;94.40;;;;;;4177194;28;20503;-67
2022/01/06 02:42:23;;;;;;;21.40;12.95;;;23.30;94.40;;;;;;4176429;28;20454;-67
2022/01/06 02:44:27;;;;;;;19.80;13.13;;;23.30;94.20;;;;;;4177103;28;20045;-66
2022/01/06 02:46:32;;;;;;;19.70;12.30;;;23.40;94.00;;;;;;4176121;28;20045;-67
2022/01/06 02:48:36;;;;;;;18.23;12.07;;;23.40;93.90;;;;;;4177642;28;20029;-67
2022/01/06 02:50:48;;;;;;;21.15;13.98;;;23.40;94.00;;;;;;4177525;28;20434;-67
2022/01/06 02:52:53;;;;;;;21.00;12.98;;;23.40;94.00;;;;;;4175093;28;20037;-66
2022/01/06 02:54:58;;;;;;;28.63;13.40;;;23.40;94.00;;;;;;4176863;28;20044;-67
2022/01/06 02:57:04;;;;;;;20.35;13.48;;;23.50;93.90;;;;;;4176652;28;20077;-67
2022/01/06 02:59:08;;;;;;;22.70;13.77;;;23.60;94.10;;;;;;4177459;28;20144;-67
2022/01/06 03:01:13;;;;;;;22.35;13.52;;;23.70;93.80;;;;;;4174851;28;20044;-66
2022/01/06 03:03:19;;;;;;;20.00;12.80;;;23.70;93.70;;;;;;4173891;28;20055;-67
2022/01/06 03:05:24;;;;;;;19.55;12.68;;;23.70;93.60;;;;;;4174933;28;20080;-66
2022/01/06 03:07:29;;;;;;;23.42;13.10;;;23.70;93.70;;;;;;4172748;28;20450;-66
2022/01/06 03:09:38;;;;;;;20.48;13.25;;;23.80;93.80;;;;;;4177271;28;20053;-66
2022/01/06 03:11:44;;;;;;;23.35;14.10;;;23.80;93.50;;;;;;4172777;28;20061;-66
2022/01/06 03:13:49;;;;;;;23.20;13.75;;;23.90;93.30;;;;;;4170333;28;20403;-66
2022/01/06 03:15:53;;;;;;;17.88;12.20;;;23.90;93.50;;;;;;4173475;28;20139;-66
2022/01/06 03:17:59;;;;;;;16.63;11.57;;;24.00;93.30;;;;;;4176033;28;20391;-66
2022/01/06 03:20:09;;;;;;;15.70;10.88;;;24.00;93.20;;;;;;4178921;28;20095;-66
2022/01/06 03:22:14;;;;;;;17.95;11.73;;;24.10;93.20;;;;;;4193380;28;20110;-66
2022/01/06 03:24:20;;;;;;;19.38;11.88;;;24.20;92.90;;;;;;4179873;28;20511;-66
2022/01/06 03:26:24;;;;;;;19.83;12.25;;;24.30;92.40;;;;;;4177404;28;20049;-66
2022/01/06 03:28:29;;;;;;;19.58;11.18;;;24.30;92.60;;;;;;4179676;28;20344;-66
2022/01/06 03:30:33;;;;;;;22.35;11.95;;;24.30;92.80;;;;;;4179361;28;20078;-66
2022/01/06 03:32:39;;;;;;;19.85;12.73;;;24.40;92.80;;;;;;4180149;28;20045;-65
2022/01/06 03:34:44;;;;;;;26.45;12.88;;;24.40;92.90;;;;;;4177575;28;20065;-66
2022/01/06 03:36:48;;;;;;;17.85;11.48;;;24.50;92.90;;;;;;4179412;28;20135;-66
2022/01/06 03:38:52;;;;;;;17.30;11.18;;;24.60;92.60;;;;;;4180214;28;20110;-66
2022/01/06 03:40:57;;;;;;;18.65;11.20;;;24.60;92.30;;;;;;4180491;28;20041;-65
2022/01/06 03:43:02;;;;;;;20.15;11.13;;;24.70;92.00;;;;;;4177833;28;20047;-67
2022/01/06 03:45:09;;;;;;;22.95;11.25;;;24.80;92.00;;;;;;4179275;28;20444;-66
2022/01/06 03:47:14;;;;;;;17.10;10.57;;;24.90;91.60;;;;;;4179136;28;20044;-66
2022/01/06 03:49:19;;;;;;;17.83;11.23;;;24.80;91.50;;;;;;4179451;28;20103;-67
2022/01/06 03:51:23;;;;;;;15.80;10.65;;;24.80;91.60;;;;;;4177780;28;20454;-66
2022/01/06 03:53:29;;;;;;;18.35;11.05;;;24.90;91.70;;;;;;4180036;28;20045;-67
2022/01/06 03:55:34;;;;;;;17.92;11.63;;;24.90;91.60;;;;;;4179513;28;20029;-67
2022/01/06 03:57:39;;;;;;;15.18;11.23;;;25.00;91.70;;;;;;4179382;28;20076;-66
2022/01/06 03:59:43;;;;;;;16.17;11.35;;;25.00;92.00;;;;;;4177174;28;20055;-66
2022/01/06 04:01:48;;;;;;;18.73;11.90;;;25.00;91.70;;;;;;4177226;28;20045;-66
2022/01/06 04:03:52;;;;;;;17.50;10.73;;;25.10;91.70;;;;;;4179530;28;20049;-66
2022/01/06 04:05:57;;;;;;;16.55;11.55;;;25.10;91.60;;;;;;4179625;28;20110;-65
2022/01/06 04:08:02;;;;;;;20.15;11.52;;;25.20;91.50;;;;;;4178080;28;20036;-65
2022/01/06 04:10:08;;;;;;;19.52;12.65;;;25.30;90.90;;;;;;4178559;28;20127;-66
2022/01/06 04:12:12;;;;;;;17.98;11.35;;;25.40;90.90;;;;;;4178329;28;20077;-66
2022/01/06 04:14:17;;;;;;;18.08;11.13;;;25.40;90.90;;;;;;4177646;28;20045;-65
2022/01/06 04:16:21;;;;;;;16.23;10.73;;;25.40;90.90;;;;;;4177219;28;20136;-66
2022/01/06 04:18:26;;;;;;;16.52;10.48;;;25.40;90.80;;;;;;4174668;28;20063;-66
2022/01/06 04:20:31;;;;;;;21.52;10.18;;;25.50;90.80;;;;;;4168909;28;20048;-67
2022/01/06 04:22:36;;;;;;;17.20;9.52;;;25.70;90.60;;;;;;4170160;28;20116;-67
2022/01/06 04:24:41;;;;;;;14.32;9.30;;;25.80;90.20;;;;;;4169689;28;20056;-67
2022/01/06 04:26:45;;;;;;;13.52;9.27;;;25.80;88.50;;;;;;4171775;28;20108;-66
2022/01/06 04:28:50;;;;;;;13.13;9.07;;;25.90;87.50;;;;;;4171948;28;20134;-66
2022/01/06 04:30:55;;;;;;;14.65;9.85;;;25.90;87.50;;;;;;4174700;28;20149;-66
2022/01/06 04:32:59;;;;;;;14.55;9.70;;;25.80;88.00;;;;;;4177062;28;20053;-66
2022/01/06 04:35:04;;;;;;;16.42;9.32;;;25.80;87.80;;;;;;4177732;28;20480;-69
2022/01/06 04:37:09;;;;;;;18.17;10.27;;;25.90;88.10;;;;;;4177721;28;20446;-67
2022/01/06 04:39:14;;;;;;;16.30;10.20;;;25.90;88.50;;;;;;4191861;28;20048;-67
2022/01/06 04:41:18;;;;;;;15.68;9.32;;;25.90;88.70;;;;;;4178737;28;20128;-67
2022/01/06 04:43:24;;;;;;;19.60;10.15;;;26.10;86.60;;;;;;4178784;28;20127;-67
2022/01/06 04:45:29;;;;;;;16.85;10.02;;;26.10;86.20;;;;;;4179089;28;20514;-67
2022/01/06 04:47:34;;;;;;;14.90;9.88;;;26.10;85.80;;;;;;4176759;28;20073;-68
2022/01/06 04:49:39;;;;;;;35.45;11.82;;;26.30;85.00;;;;;;4177341;28;20167;-68
2022/01/06 04:51:44;;;;;;;17.60;10.65;;;26.30;85.80;;;;;;4178863;28;20068;-68
2022/01/06 04:53:48;;;;;;;14.63;9.80;;;26.20;86.30;;;;;;4179475;28;20060;-67
2022/01/06 04:55:56;;;;;;;13.50;10.05;;;26.30;86.10;;;;;;4179189;28;20051;-68
2022/01/06 04:58:00;;;;;;;15.55;10.10;;;26.30;84.40;;;;;;4179031;28;20504;-66
2022/01/06 05:00:06;;;;;;;12.45;8.73;;;26.50;81.70;;;;;;4178292;28;20067;-70
2022/01/06 05:02:11;;;;;;;13.15;9.20;;;26.50;80.80;;;;;;4193054;28;20070;-68
2022/01/06 05:04:16;;;;;;;16.30;11.82;;;26.60;81.80;;;;;;4178486;28;20071;-67
2022/01/06 05:06:21;;;;;;;13.23;9.88;;;26.70;81.40;;;;;;4178977;28;20543;-67
2022/01/06 05:08:27;;;;;;;14.65;9.07;;;26.70;81.00;;;;;;4170697;28;20042;-67
2022/01/06 05:10:31;;;;;;;13.38;9.55;;;26.70;80.70;;;;;;4174583;28;20569;-68
2022/01/06 05:12:42;;;;;;;12.40;8.05;;;26.70;81.40;;;;;;4171136;28;20391;-68
2022/01/06 05:14:47;;;;;;;12.25;8.63;;;26.80;80.30;;;;;;4171727;28;20049;-67
2022/01/06 05:16:55;;;;;;;13.10;8.40;;;27.00;78.90;;;;;;4169628;28;20380;-67
2022/01/06 05:19:00;;;;;;;13.23;8.13;;;26.90;79.30;;;;;;4168858;28;20057;-67
2022/01/06 05:21:06;;;;;;;12.52;8.00;;;26.80;79.00;;;;;;4170709;28;20120;-67
2022/01/06 05:23:12;;;;;;;10.35;7.68;;;26.90;78.00;;;;;;4169574;28;20045;-67
2022/01/06 05:25:20;;;;;;;11.05;7.53;;;27.00;78.40;;;;;;4168177;28;20045;-68
2022/01/06 05:27:25;;;;;;;12.98;7.90;;;27.00;78.00;;;;;;4173687;28;20049;-65
2022/01/06 05:29:30;;;;;;;11.35;8.15;;;27.00;78.40;;;;;;4175795;28;20104;-66
2022/01/06 05:31:35;;;;;;;14.90;8.40;;;27.00;78.60;;;;;;4177732;28;20049;-67
2022/01/06 05:33:39;;;;;;;12.00;9.23;;;27.00;79.20;;;;;;4176183;28;20033;-67
2022/01/06 05:35:44;;;;;;;17.45;9.32;;;27.10;79.10;;;;;;4177933;28;20056;-67
2022/01/06 05:37:49;;;;;;;15.00;9.18;;;27.10;78.20;;;;;;4177785;28;20550;-69
2022/01/06 05:39:53;;;;;;;16.05;9.40;;;27.10;78.40;;;;;;4177061;28;20052;-67
2022/01/06 05:41:58;;;;;;;19.00;9.60;;;27.20;78.60;;;;;;4173845;28;20434;-67
2022/01/06 05:44:03;;;;;;;14.52;8.45;;;27.20;78.00;;;;;;4176570;28;20052;-67
2022/01/06 05:46:08;;;;;;;12.18;8.32;;;27.20;78.00;;;;;;4177529;28;20049;-67
2022/01/06 05:48:14;;;;;;;13.60;8.23;;;27.40;78.40;;;;;;4177307;28;20443;-67
2022/01/06 05:50:18;;;;;;;13.68;8.30;;;27.40;76.90;;;;;;4176374;28;20049;-67
2022/01/06 05:52:24;;;;;;;17.33;8.38;;;27.40;75.80;;;;;;4177699;28;20037;-66
2022/01/06 05:54:28;;;;;;;11.70;7.60;;;27.50;75.00;;;;;;4175832;28;20071;-67
2022/01/06 05:56:33;;;;;;;12.13;8.93;;;27.70;73.40;;;;;;4177276;28;20051;-66
2022/01/06 05:58:40;;;;;;;13.50;8.38;;;27.70;73.60;;;;;;4177802;28;20130;-66
2022/01/06 06:00:44;;;;;;;13.77;8.40;;;27.80;73.80;;;;;;4177428;28;20051;-66
2022/01/06 06:02:50;;;;;;;15.48;9.25;;;27.80;73.00;;;;;;4176139;28;20033;-66
2022/01/06 06:04:56;;;;;;;11.35;8.05;;;27.80;73.80;;;;;;4176411;28;20041;-68
2022/01/06 06:07:00;;;;;;;15.15;8.73;;;27.70;74.20;;;;;;4176093;28;20087;-67
2022/01/06 06:09:06;;;;;;;14.20;8.25;;;27.60;74.70;;;;;;4176216;28;20128;-68
2022/01/06 06:11:10;;;;;;;14.18;8.57;;;27.60;76.00;;;;;;4175926;28;20029;-69
2022/01/06 06:13:15;;;;;;;11.75;8.32;;;27.60;75.80;;;;;;4177269;28;20476;-68
2022/01/06 06:15:23;;;;;;;12.50;8.13;;;27.70;75.60;;;;;;4177172;28;20087;-68
2022/01/06 06:17:28;;;;;;;14.93;8.30;;;27.70;75.40;;;;;;4177315;28;20049;-68
2022/01/06 06:19:33;;;;;;;17.42;8.25;;;27.80;74.30;;;;;;4177268;28;20044;-69
2022/01/06 06:21:38;;;;;;;13.15;8.18;;;27.80;73.60;;;;;;4175481;28;20074;-69
2022/01/06 06:23:42;;;;;;;9.98;7.85;;;27.80;73.50;;;;;;4174888;28;20123;-69
2022/01/06 06:25:47;;;;;;;11.63;7.22;;;27.90;73.50;;;;;;4174815;28;20128;-69
2022/01/06 06:27:52;;;;;;;12.07;6.35;;;27.90;72.50;;;;;;4176241;28;20102;-70
2022/01/06 06:29:57;;;;;;;20.20;7.55;;;28.30;71.90;;;;;;4177184;28;20488;-70
2022/01/06 06:32:02;;;;;;;10.95;7.13;;;28.40;70.90;;;;;;4177262;28;20500;-70
2022/01/06 06:34:09;;;;;;;9.75;7.20;;;28.40;71.20;;;;;;4175052;28;20565;-70
2022/01/06 06:36:13;;;;;;;11.95;7.05;;;28.30;71.00;;;;;;4176941;28;20037;-70
2022/01/06 06:38:23;;;;;;;9.75;6.65;;;28.40;70.90;;;;;;4176463;28;20067;-70
2022/01/06 06:40:28;;;;;;;10.00;6.85;;;28.30;71.40;;;;;;4176757;28;20044;-70
2022/01/06 06:42:33;;;;;;;8.80;6.80;;;28.20;71.70;;;;;;4177415;28;20041;-70
2022/01/06 06:44:37;;;;;;;13.35;6.60;;;28.20;70.70;;;;;;4176398;28;20136;-70
2022/01/06 06:46:42;;;;;;;13.15;6.68;;;28.30;69.50;;;;;;4176574;28;20094;-70
2022/01/06 06:48:50;;;;;;;8.80;6.43;;;28.60;70.40;;;;;;4176780;28;20049;-69
2022/01/06 06:50:55;;;;;;;9.50;6.70;;;28.60;70.60;;;;;;4175612;28;20515;-70
2022/01/06 06:53:02;;;;;;;12.32;6.70;;;28.50;69.80;;;;;;4177372;28;20033;-69
2022/01/06 06:55:07;;;;;;;9.45;6.32;;;28.50;69.10;;;;;;4178901;28;20052;-68
2022/01/06 06:57:12;;;;;;;8.93;6.30;;;28.50;68.90;;;;;;4180498;28;20118;-68
2022/01/06 06:59:16;;;;;;;10.27;6.50;;;28.40;69.50;;;;;;4180184;28;20180;-68
2022/01/06 07:01:24;;;;;;;8.18;6.25;;;28.30;70.00;;;;;;4180245;28;20045;-68
2022/01/06 07:03:28;;;;;;;10.02;6.15;;;28.30;70.20;;;;;;4179405;28;20139;-69
2022/01/06 07:05:35;;;;;;;9.23;6.00;;;28.30;69.90;;;;;;4178548;28;20040;-68
2022/01/06 07:07:39;;;;;;;8.70;5.82;;;28.40;68.50;;;;;;4179998;28;20094;-68
2022/01/06 07:09:44;;;;;;;10.25;6.07;;;28.30;68.60;;;;;;4179744;28;20060;-69
2022/01/06 07:11:49;;;;;;;12.38;5.70;;;28.40;68.90;;;;;;4179441;28;20472;-68
2022/01/06 07:13:54;;;;;;;11.45;7.03;;;28.40;69.90;;;;;;4180360;28;20037;-68
